Itagimirim, Brazil
Current Conditions -  °F | °C
As of 7:00 AM on Friday 24 Oct 2014 (Local Time) from SBPS Reporting Station
Scattered Clouds Scattered Clouds  
Wind Chill: 73°   Ceiling: Unl
Heat Index: 73°   Visibility: 6mi
Dew Point: 66°   Wind: 6mph
Humidity: 78%   Direction: 190°S
Pressure: 30.03"   Gusts: NA
Location:  16.09°S, 39.61°W
Report Text: SBPS 241000Z 19005KT 9999 FEW020 SCT050 23/19 Q1017
Loading
Personal Weather Stations






























Interactive Weather Map
Tropical Storm Tracking
New forecast layout! Learn more

10-Day Weather Forecast

Advertisements
Track Severe Weather on mobile